Helmi — SA7925 — position and weather

sailwx.info

Track history (hours):
 
Tides and Currents Weather Stations Pressure Air Temp Water Temp Dewpoint Dewpoint Depression Visibility Wind Speed Wind Dir Waves Ship Positions

Helmi

Last reported at 2017-Jul-20 13:24 UTC. Time now 2017-Jul-21 20:27 UTC.
Position N 55°17' W 006°04'.

Length 12 m.

Type: Pleasure craft. MMSI: 265614710.

Date/timePositionNaut miles runAvg speedWind from/ knotsBaromVisibWave heightAir tempDewpointWater temp
2017-Jul-20 13:24N 55°17' W 006°04'2 4.0
2017-Jul-20 12:59N 55°19' W 006°06'2 3.1
2017-Jul-20 12:28N 55°20' W 006°07'2 3.1
2017-Jul-20 11:58N 55°22' W 006°07'1 1.8
2017-Jul-20 11:28N 55°23' W 006°07'1 2.9
2017-Jul-20 10:57N 55°24' W 006°07'2 3.4
2017-Jul-20 10:26N 55°26' W 006°07'2 4.8
2017-Jul-20 09:57N 55°28' W 006°08'3 5.6
2017-Jul-20 09:26N 55°31' W 006°09'3 5.8
2017-Jul-20 08:55N 55°34' W 006°11'4 5.5
2017-Jul-20 08:15N 55°37' W 006°12'1 2.8
2017-Jul-20 08:00N 55°38' W 006°11'0 0.0
2017-Jul-20 07:30N 55°38' W 006°11'0 0.0
2017-Jul-18 18:11N 55°38' W 006°11'1 3.8
2017-Jul-18 17:59N 55°37' W 006°12'3 5.6
2017-Jul-18 17:29N 55°36' W 006°08'3 6.1
2017-Jul-18 17:00N 55°38' W 006°04'3 6.2
2017-Jul-18 16:30N 55°41' W 006°00'44 5.6
2017-Jul-18 08:37N 56°22' W 005°33'1 6.2
2017-Jul-18 08:30N 56°23' W 005°32'3 5.3
2017-Jul-18 08:00N 56°25' W 005°30'0 0.3
2017-Jul-18 07:26N 56°25' W 005°30'0 0.0
2017-Jul-17 20:47N 56°25' W 005°30'0 0.0
2017-Jul-17 20:29N 56°25' W 005°30'0 0.0
2017-Jul-17 19:53N 56°25' W 005°30'0 0.0
2017-Jul-17 19:29N 56°25' W 005°30'0 0.0
2017-Jul-17 18:59N 56°25' W 005°30'0 0.0
2017-Jul-17 18:29N 56°25' W 005°30'0 0.0
2017-Jul-17 17:59N 56°25' W 005°30'0 0.0
2017-Jul-17 17:28N 56°25' W 005°30'0 0.0
2017-Jul-17 16:52N 56°25' W 005°30'0 0.0
2017-Jul-17 16:28N 56°25' W 005°30'0 0.0
2017-Jul-17 15:58N 56°25' W 005°30'0 0.0
2017-Jul-17 15:28N 56°25' W 005°30'0 0.0
2017-Jul-15 12:28N 56°25' W 005°30'0 0.0
2017-Jul-15 11:58N 56°25' W 005°30'0 0.0
2017-Jul-15 11:28N 56°25' W 005°30'0 0.0
2017-Jul-14 20:13N 56°25' W 005°30'0 0.0
2017-Jul-14 19:58N 56°25' W 005°30'0 0.0
2017-Jul-14 19:28N 56°25' W 005°30'0 0.0
2017-Jul-14 18:58N 56°25' W 005°30'0 0.0
2017-Jul-14 18:28N 56°25' W 005°30'0 0.0
2017-Jul-14 17:58N 56°25' W 005°30'0 0.0
2017-Jul-14 17:28N 56°25' W 005°30'0 0.0
2017-Jul-14 16:58N 56°25' W 005°30'0 0.0
2017-Jul-14 16:28N 56°25' W 005°30'0 0.0
2017-Jul-14 15:58N 56°25' W 005°30'0 0.0
2017-Jul-14 15:28N 56°25' W 005°30'0 0.0
2017-Jul-14 14:58N 56°25' W 005°30'1 1.9
2017-Jul-14 14:30N 56°26' W 005°30'3 5.6
2017-Jul-14 14:00N 56°29' W 005°29'3 5.2
2017-Jul-14 13:30N 56°31' W 005°27'4 7.5
2017-Jul-14 13:00N 56°35' W 005°25'3 6.1
2017-Jul-14 12:30N 56°37' W 005°22'3 5.1
2017-Jul-14 12:01N 56°39' W 005°20'3 5.5
2017-Jul-14 11:30N 56°42' W 005°16'3 6.2
2017-Jul-14 11:00N 56°44' W 005°14'  
Track history (hours):
 
Tides and Currents Weather Stations Pressure Air Temp Water Temp Dewpoint Dewpoint Depression Visibility Wind Speed Wind Dir Waves Ship Positions

Helmi

Last reported at 2017-Jul-20 13:24 UTC. Time now 2017-Jul-21 20:27 UTC.
Position N 55°17' W 006°04'.

Length 12 m.

Type: Pleasure craft. MMSI: 265614710.

Date/timePositionNaut miles runAvg speedWind from/ knotsBaromVisibWave heightAir tempDewpointWater temp
2017-Jul-20 13:24N 55°17' W 006°04'2 4.0
2017-Jul-20 12:59N 55°19' W 006°06'2 3.1
2017-Jul-20 12:28N 55°20' W 006°07'2 3.1
2017-Jul-20 11:58N 55°22' W 006°07'1 1.8
2017-Jul-20 11:28N 55°23' W 006°07'1 2.9
2017-Jul-20 10:57N 55°24' W 006°07'2 3.4
2017-Jul-20 10:26N 55°26' W 006°07'2 4.8
2017-Jul-20 09:57N 55°28' W 006°08'3 5.6
2017-Jul-20 09:26N 55°31' W 006°09'3 5.8
2017-Jul-20 08:55N 55°34' W 006°11'4 5.5
2017-Jul-20 08:15N 55°37' W 006°12'1 2.8
2017-Jul-20 08:00N 55°38' W 006°11'0 0.0
2017-Jul-20 07:30N 55°38' W 006°11'0 0.0
2017-Jul-18 18:11N 55°38' W 006°11'1 3.8
2017-Jul-18 17:59N 55°37' W 006°12'3 5.6
2017-Jul-18 17:29N 55°36' W 006°08'3 6.1
2017-Jul-18 17:00N 55°38' W 006°04'3 6.2
2017-Jul-18 16:30N 55°41' W 006°00'44 5.6
2017-Jul-18 08:37N 56°22' W 005°33'1 6.2
2017-Jul-18 08:30N 56°23' W 005°32'3 5.3
2017-Jul-18 08:00N 56°25' W 005°30'0 0.3
2017-Jul-18 07:26N 56°25' W 005°30'0 0.0
2017-Jul-17 20:47N 56°25' W 005°30'0 0.0
2017-Jul-17 20:29N 56°25' W 005°30'0 0.0
2017-Jul-17 19:53N 56°25' W 005°30'0 0.0
2017-Jul-17 19:29N 56°25' W 005°30'0 0.0
2017-Jul-17 18:59N 56°25' W 005°30'0 0.0
2017-Jul-17 18:29N 56°25' W 005°30'0 0.0
2017-Jul-17 17:59N 56°25' W 005°30'0 0.0
2017-Jul-17 17:28N 56°25' W 005°30'0 0.0
2017-Jul-17 16:52N 56°25' W 005°30'0 0.0
2017-Jul-17 16:28N 56°25' W 005°30'0 0.0
2017-Jul-17 15:58N 56°25' W 005°30'0 0.0
2017-Jul-17 15:28N 56°25' W 005°30'0 0.0
2017-Jul-15 12:28N 56°25' W 005°30'0 0.0
2017-Jul-15 11:58N 56°25' W 005°30'0 0.0
2017-Jul-15 11:28N 56°25' W 005°30'0 0.0
2017-Jul-14 20:13N 56°25' W 005°30'0 0.0
2017-Jul-14 19:58N 56°25' W 005°30'0 0.0
2017-Jul-14 19:28N 56°25' W 005°30'0 0.0
2017-Jul-14 18:58N 56°25' W 005°30'0 0.0
2017-Jul-14 18:28N 56°25' W 005°30'0 0.0
2017-Jul-14 17:58N 56°25' W 005°30'0 0.0
2017-Jul-14 17:28N 56°25' W 005°30'0 0.0
2017-Jul-14 16:58N 56°25' W 005°30'0 0.0
2017-Jul-14 16:28N 56°25' W 005°30'0 0.0
2017-Jul-14 15:58N 56°25' W 005°30'0 0.0
2017-Jul-14 15:28N 56°25' W 005°30'0 0.0
2017-Jul-14 14:58N 56°25' W 005°30'1 1.9
2017-Jul-14 14:30N 56°26' W 005°30'3 5.6
2017-Jul-14 14:00N 56°29' W 005°29'3 5.2
2017-Jul-14 13:30N 56°31' W 005°27'4 7.5
2017-Jul-14 13:00N 56°35' W 005°25'3 6.1
2017-Jul-14 12:30N 56°37' W 005°22'3 5.1
2017-Jul-14 12:01N 56°39' W 005°20'3 5.5
2017-Jul-14 11:30N 56°42' W 005°16'3 6.2
2017-Jul-14 11:00N 56°44' W 005°14'  

Dump ship's entire track history